createdAt,value
2023-04-15T00:04:53.284Z,71.89
2023-04-15T00:09:59.006Z,71.96
2023-04-15T00:15:06.335Z,72.01
2023-04-15T00:20:14.081Z,72.07
2023-04-15T00:25:19.740Z,72.12
2023-04-15T00:30:26.114Z,72.11
2023-04-15T00:35:32.784Z,72.14
2023-04-15T00:40:39.427Z,72.19
2023-04-15T00:45:46.743Z,72.19
2023-04-15T00:50:52.679Z,72.25
2023-04-15T00:55:58.685Z,72.25
2023-04-15T01:01:05.424Z,72.24
2023-04-15T01:06:12.041Z,72.30
2023-04-15T01:11:18.985Z,72.35
2023-04-15T01:16:24.595Z,72.38
2023-04-15T01:21:30.319Z,72.44
2023-04-15T01:26:36.202Z,72.45
2023-04-15T01:31:41.874Z,72.56
2023-04-15T01:36:47.844Z,72.65
2023-04-15T01:41:53.732Z,72.74
2023-04-15T01:47:00.385Z,72.79
2023-04-15T01:52:06.513Z,72.84
2023-04-15T01:57:12.378Z,72.94
2023-04-15T02:02:18.097Z,73.07
2023-04-15T02:07:23.991Z,73.09
2023-04-15T02:12:30.139Z,73.14
2023-04-15T02:17:37.891Z,73.16
2023-04-15T02:22:43.766Z,73.16
2023-04-15T02:27:49.499Z,73.20
2023-04-15T02:32:55.634Z,73.19
2023-04-15T02:38:02.763Z,73.25
2023-04-15T02:43:08.465Z,73.26
2023-04-15T02:48:14.253Z,73.32
2023-04-15T02:53:20.476Z,73.25
2023-04-15T02:58:26.345Z,73.24
2023-04-15T03:03:32.360Z,73.26
2023-04-15T03:08:38.359Z,73.25
2023-04-15T03:13:43.995Z,73.23
2023-04-15T03:18:49.643Z,73.13
2023-04-15T03:23:55.894Z,73.10
2023-04-15T03:29:01.841Z,73.07
2023-04-15T03:34:07.794Z,73.07
2023-04-15T03:39:13.773Z,73.06
2023-04-15T03:44:19.914Z,73.00
2023-04-15T03:49:25.517Z,72.94
2023-04-15T03:54:31.230Z,72.91
2023-04-15T03:59:36.836Z,72.86
2023-04-15T04:04:43.388Z,72.87
2023-04-15T04:09:48.980Z,72.90
2023-04-15T04:14:55.121Z,72.90
2023-04-15T04:20:00.662Z,72.93
2023-04-15T04:25:08.618Z,72.97
2023-04-15T04:30:15.822Z,73.07
2023-04-15T04:35:22.317Z,73.09
2023-04-15T04:40:27.957Z,73.00
2023-04-15T04:45:33.680Z,72.83
2023-04-15T04:50:39.475Z,72.73
2023-04-15T04:55:45.240Z,72.69
2023-04-15T05:00:51.480Z,72.56
2023-04-15T05:05:57.050Z,72.50
2023-04-15T05:11:02.979Z,72.50
2023-04-15T05:16:09.520Z,72.46
2023-04-15T05:21:15.973Z,72.38
2023-04-15T05:26:22.081Z,72.11
2023-04-15T05:31:27.704Z,72.05
2023-04-15T05:36:33.428Z,72.10
2023-04-15T05:41:39.034Z,72.08
2023-04-15T05:46:44.807Z,72.08
2023-04-15T05:51:51.160Z,72.11
2023-04-15T05:56:57.948Z,72.15
2023-04-15T06:02:03.833Z,72.19
2023-04-15T06:07:09.407Z,72.25
2023-04-15T06:12:15.055Z,72.18
2023-04-15T06:17:20.779Z,72.14
2023-04-15T06:22:26.507Z,71.91
2023-04-15T06:27:32.116Z,71.63
2023-04-15T06:32:37.915Z,71.45
2023-04-15T06:37:43.698Z,71.47
2023-04-15T06:42:49.698Z,71.13
2023-04-15T06:47:55.325Z,70.69
2023-04-15T06:53:01.744Z,70.56
2023-04-15T06:58:07.571Z,70.39
2023-04-15T07:03:14.696Z,70.09
2023-04-15T07:08:23.752Z,69.96
2023-04-15T07:13:31.774Z,69.86
2023-04-15T07:18:37.468Z,69.79
2023-04-15T07:23:43.666Z,69.66
2023-04-15T07:28:49.634Z,69.71
2023-04-15T07:33:55.273Z,69.61
2023-04-15T07:39:03.257Z,69.57
2023-04-15T07:44:09.576Z,69.65
2023-04-15T07:49:15.336Z,69.58
2023-04-15T07:54:21.266Z,69.50
2023-04-15T07:59:29.712Z,69.54
2023-04-15T08:04:35.835Z,69.56
2023-04-15T08:09:41.866Z,69.67
2023-04-15T08:14:47.871Z,69.65
2023-04-15T08:19:53.740Z,69.68
2023-04-15T08:24:59.644Z,69.61
2023-04-15T08:30:07.335Z,69.58
2023-04-15T08:35:14.076Z,69.50
2023-04-15T08:40:20.377Z,69.48
2023-04-15T08:45:26.462Z,69.29
2023-04-15T08:50:33.604Z,69.21
2023-04-15T08:55:45.114Z,69.14
2023-04-15T09:00:50.747Z,69.27
2023-04-15T09:05:57.599Z,69.33
2023-04-15T09:11:04.057Z,69.26
2023-04-15T09:16:10.235Z,69.29
2023-04-15T09:21:17.788Z,69.34
2023-04-15T09:26:34.806Z,69.46
2023-04-15T09:31:41.244Z,69.43
2023-04-15T09:36:57.580Z,69.33
2023-04-15T09:42:10.605Z,69.39
2023-04-15T09:47:31.000Z,69.47
2023-04-15T09:52:43.283Z,69.63
2023-04-15T09:57:49.068Z,69.83
2023-04-15T10:02:55.156Z,69.87
2023-04-15T10:08:02.216Z,69.88
2023-04-15T10:13:09.102Z,69.94
2023-04-15T10:18:17.745Z,70.07
2023-04-15T10:23:25.334Z,70.26
2023-04-15T10:28:31.194Z,70.44
2023-04-15T10:33:38.743Z,70.47
2023-04-15T10:38:46.366Z,70.48
2023-04-15T10:43:55.541Z,70.55
2023-04-15T10:49:10.599Z,70.69
2023-04-15T10:54:31.426Z,70.82
2023-04-15T10:59:59.560Z,70.96
2023-04-15T11:05:06.953Z,71.10
2023-04-15T11:10:56.916Z,71.25
2023-04-15T11:16:04.134Z,71.43
2023-04-15T11:21:10.577Z,71.68
2023-04-15T11:26:16.801Z,71.85
2023-04-15T11:31:23.558Z,72.00
2023-04-15T11:36:31.641Z,72.09
2023-04-15T11:41:38.103Z,71.97
2023-04-15T11:46:45.517Z,72.03
2023-04-15T11:51:51.449Z,72.36
2023-04-15T11:56:57.100Z,72.43
2023-04-15T12:02:13.736Z,72.96
2023-04-15T12:07:19.784Z,73.43
2023-04-15T12:12:30.455Z,73.79
2023-04-15T12:17:51.519Z,74.22
2023-04-15T12:23:08.304Z,74.71
2023-04-15T12:28:14.892Z,75.43
2023-04-15T12:33:20.904Z,75.53
2023-04-15T12:38:26.850Z,75.81
2023-04-15T12:43:32.653Z,76.11
2023-04-15T12:48:38.537Z,76.31
2023-04-15T12:53:44.463Z,76.31
2023-04-15T12:58:50.184Z,76.44
2023-04-15T13:03:56.098Z,76.96
2023-04-15T13:09:04.529Z,77.13
2023-04-15T13:14:12.674Z,77.18
2023-04-15T13:19:18.565Z,77.19
2023-04-15T13:24:24.255Z,77.32
2023-04-15T13:29:30.089Z,77.27
2023-04-15T13:34:35.944Z,77.17
2023-04-15T13:39:41.743Z,77.11
2023-04-15T13:44:47.696Z,76.62
2023-04-15T13:49:56.016Z,76.39
2023-04-15T13:55:19.139Z,76.40
2023-04-15T14:00:26.309Z,76.63
2023-04-15T14:05:32.281Z,76.79
2023-04-15T14:10:38.248Z,77.17
2023-04-15T14:15:43.915Z,77.42
2023-04-15T14:20:49.633Z,77.60
2023-04-15T14:25:55.844Z,77.74
2023-04-15T14:31:01.606Z,77.76
2023-04-15T14:36:09.471Z,78.19
2023-04-15T14:41:15.679Z,77.94
2023-04-15T14:46:21.464Z,78.17
2023-04-15T14:51:27.032Z,78.18
2023-04-15T14:56:32.746Z,78.66
2023-04-15T15:01:38.422Z,78.52
2023-04-15T15:06:44.484Z,78.65
2023-04-15T15:11:50.859Z,78.76
2023-04-15T15:16:56.721Z,78.71
2023-04-15T15:22:03.153Z,79.11
2023-04-15T15:27:08.978Z,79.19
2023-04-15T15:32:14.872Z,79.32
2023-04-15T15:37:20.772Z,79.39
2023-04-15T15:42:26.669Z,79.61
2023-04-15T15:47:32.905Z,79.79
2023-04-15T15:52:39.103Z,79.79
2023-04-15T15:57:44.884Z,79.91
2023-04-15T16:03:06.137Z,80.01
2023-04-15T16:08:12.848Z,80.11
2023-04-15T16:13:18.688Z,80.29
2023-04-15T16:18:24.459Z,80.40
2023-04-15T16:23:31.253Z,80.57
2023-04-15T16:28:37.054Z,80.49
2023-04-15T16:33:42.865Z,80.50
2023-04-15T16:38:48.786Z,80.65
2023-04-15T16:43:55.290Z,80.82
2023-04-15T16:49:01.459Z,80.73
2023-04-15T16:54:07.469Z,80.75
2023-04-15T16:59:13.480Z,80.86
2023-04-15T17:04:19.340Z,80.97
2023-04-15T17:09:25.183Z,81.15
2023-04-15T17:14:31.664Z,81.26
2023-04-15T17:19:37.324Z,81.18
2023-04-15T17:24:43.314Z,81.38
2023-04-15T17:29:49.165Z,81.43
2023-04-15T17:34:55.044Z,81.43
2023-04-15T17:40:00.758Z,81.49
2023-04-15T17:45:09.075Z,81.78
2023-04-15T17:50:14.798Z,81.96
2023-04-15T17:55:21.763Z,82.06
2023-04-15T18:00:27.858Z,82.24
2023-04-15T18:05:33.611Z,81.83
2023-04-15T18:10:39.775Z,81.76
2023-04-15T18:15:47.402Z,81.90
2023-04-15T18:20:53.525Z,82.02
2023-04-15T18:25:59.959Z,82.22
2023-04-15T18:31:06.474Z,82.21
2023-04-15T18:36:12.571Z,82.18
2023-04-15T18:41:18.412Z,82.02
2023-04-15T18:46:24.106Z,81.80
2023-04-15T18:51:29.767Z,81.93
2023-04-15T18:56:35.635Z,82.06
2023-04-15T19:01:41.565Z,82.00
2023-04-15T19:06:48.121Z,82.20
2023-04-15T19:11:53.936Z,82.22
2023-04-15T19:16:59.860Z,82.21
2023-04-15T19:22:06.268Z,82.31
2023-04-15T19:27:11.977Z,82.22
2023-04-15T19:32:17.844Z,82.28
2023-04-15T19:37:23.631Z,82.31
2023-04-15T19:42:29.226Z,82.56
2023-04-15T19:47:36.769Z,82.61
2023-04-15T19:52:42.530Z,82.62
2023-04-15T19:57:48.258Z,82.70
2023-04-15T20:02:55.730Z,82.69
2023-04-15T20:08:03.125Z,82.85
2023-04-15T20:13:08.852Z,82.85
2023-04-15T20:18:14.593Z,82.92
2023-04-15T20:23:20.649Z,83.24
2023-04-15T20:28:27.355Z,83.45
2023-04-15T20:33:33.322Z,83.20
2023-04-15T20:38:39.488Z,83.18
2023-04-15T20:43:45.561Z,83.15
2023-04-15T20:48:51.492Z,83.18
2023-04-15T20:53:57.227Z,83.26
2023-04-15T20:59:03.353Z,83.32
2023-04-15T21:04:09.261Z,83.26
2023-04-15T21:09:15.240Z,83.28
2023-04-15T21:14:21.088Z,83.21
2023-04-15T21:19:26.969Z,83.11
2023-04-15T21:24:32.633Z,83.12
2023-04-15T21:29:39.946Z,83.29
2023-04-15T21:34:46.109Z,83.29
2023-04-15T21:39:51.859Z,83.32
2023-04-15T21:44:57.665Z,83.36
2023-04-15T21:50:03.475Z,83.28
2023-04-15T21:55:11.507Z,83.32
2023-04-15T22:00:18.238Z,83.22
2023-04-15T22:05:24.245Z,83.18
2023-04-15T22:10:30.187Z,83.15
2023-04-15T22:15:36.238Z,83.31
2023-04-15T22:20:41.902Z,83.36
2023-04-15T22:25:47.659Z,83.34
2023-04-15T22:30:54.213Z,83.46
2023-04-15T22:36:00.021Z,83.51
2023-04-15T22:41:05.821Z,83.57
2023-04-15T22:46:11.470Z,83.37
2023-04-15T22:51:24.143Z,83.60
2023-04-15T22:56:29.804Z,83.59
2023-04-15T23:01:37.729Z,83.75
2023-04-15T23:06:43.614Z,83.69
2023-04-15T23:11:49.565Z,83.74
2023-04-15T23:16:55.508Z,83.83
2023-04-15T23:22:01.194Z,83.93
2023-04-15T23:27:06.972Z,83.96
2023-04-15T23:32:12.621Z,83.90
2023-04-15T23:37:19.862Z,83.99
2023-04-15T23:42:25.662Z,84.01
2023-04-15T23:47:31.494Z,83.93
2023-04-15T23:52:37.712Z,83.84
2023-04-15T23:57:43.508Z,84.03
